Time,TemperatureF,DewpointF,PressureIn,WindDirection,WindDirectionDegrees,WindSpeedMPH,WindSpeedGustMPH,Humidity,HourlyPrecipIn,Conditions,Clouds,dailyrainin,SoftwareType,DateUTC
2013-12-06 00:01:00,52.3,49.8,29.85,WNW,295,0.0,0.0,91,0.00,,,0.01,Wunderground v.1.15,2013-12-06 05:01:00,
2013-12-06 00:02:00,52.3,49.8,29.85,WNW,295,2.0,2.0,91,0.00,,,0.01,Wunderground v.1.15,2013-12-06 05:02:00,
2013-12-06 00:03:00,52.3,49.8,29.85,WNW,295,0.0,2.0,91,0.00,,,0.01,Wunderground v.1.15,2013-12-06 05:03:00,
2013-12-06 00:04:00,52.2,49.7,29.85,WNW,295,0.0,2.0,91,0.00,,,0.01,Wunderground v.1.15,2013-12-06 05:04:00,
2013-12-06 00:08:00,52.2,49.7,29.85,WNW,295,0.0,2.0,91,0.00,,,0.01,Wunderground v.1.15,2013-12-06 05:08:00,
2013-12-06 00:11:00,52.0,49.5,29.85,WNW,295,0.0,0.0,91,0.00,,,0.01,Wunderground v.1.15,2013-12-06 05:11:00,
2013-12-06 00:16:00,51.6,49.1,29.87,WNW,295,3.0,3.0,91,0.00,,,0.01,Wunderground v.1.15,2013-12-06 05:16:00,
2013-12-06 00:21:00,51.3,49.1,29.87,WNW,295,1.0,2.0,92,0.00,,,0.01,Wunderground v.1.15,2013-12-06 05:21:00,
2013-12-06 00:27:00,51.3,49.1,29.87,WNW,295,0.0,2.0,92,0.00,,,0.01,Wunderground v.1.15,2013-12-06 05:27:00,
2013-12-06 00:33:00,51.4,49.2,29.84,WNW,296,0.0,1.0,92,0.00,,,0.01,Wunderground v.1.15,2013-12-06 05:33:00,
2013-12-06 00:39:00,51.4,49.2,29.84,WNW,296,0.0,1.0,92,0.00,,,0.01,Wunderground v.1.15,2013-12-06 05:39:00,
2013-12-06 00:44:00,51.3,49.1,29.85,WNW,296,0.0,0.0,92,0.00,,,0.01,Wunderground v.1.15,2013-12-06 05:44:00,
2013-12-06 00:50:00,51.1,48.9,29.85,WNW,296,0.0,0.0,92,0.00,,,0.01,Wunderground v.1.15,2013-12-06 05:50:00,
2013-12-06 00:56:00,51.0,48.8,29.85,WNW,296,0.0,2.0,92,0.00,,,0.01,Wunderground v.1.15,2013-12-06 05:56:00,
2013-12-06 01:01:00,51.0,48.8,29.85,WNW,296,0.0,1.0,92,0.00,,,0.01,Wunderground v.1.15,2013-12-06 06:01:00,
2013-12-06 01:07:00,51.0,48.5,29.85,WNW,295,2.0,3.0,91,0.00,,,0.01,Wunderground v.1.15,2013-12-06 06:07:00,
2013-12-06 01:13:00,50.7,47.9,29.85,NNW,331,2.0,3.0,90,0.00,,,0.01,Wunderground v.1.15,2013-12-06 06:13:00,
2013-12-06 01:18:00,50.5,47.4,29.85,NE,37,5.0,5.0,89,0.00,,,0.01,Wunderground v.1.15,2013-12-06 06:18:00,
2013-12-06 01:24:00,50.7,47.0,29.85,East,97,4.0,6.0,87,0.00,,,0.01,Wunderground v.1.15,2013-12-06 06:24:00,
2013-12-06 01:30:00,50.7,47.0,29.86,ESE,102,5.0,5.0,87,0.16,,,0.03,Wunderground v.1.15,2013-12-06 06:30:00,
2013-12-06 01:35:00,50.5,46.8,29.86,NE,55,4.0,5.0,87,0.13,,,0.04,Wunderground v.1.15,2013-12-06 06:35:00,
2013-12-06 01:41:00,50.4,47.3,29.86,NE,53,3.0,3.0,89,0.09,,,0.04,Wunderground v.1.15,2013-12-06 06:41:00,
2013-12-06 01:47:00,50.2,47.1,29.87,NE,53,0.0,3.0,89,0.05,,,0.04,Wunderground v.1.15,2013-12-06 06:47:00,
2013-12-06 01:52:00,49.9,47.1,29.87,NE,53,1.0,1.0,90,0.00,,,0.04,Wunderground v.1.15,2013-12-06 06:52:00,
2013-12-06 01:58:00,49.8,47.0,29.87,NE,53,2.0,2.0,90,0.13,,,0.06,Wunderground v.1.15,2013-12-06 06:58:00,
2013-12-06 02:03:00,49.5,46.7,29.89,NE,53,0.0,3.0,90,0.10,,,0.07,Wunderground v.1.15,2013-12-06 07:03:00,
2013-12-06 02:08:00,49.4,46.6,29.89,NE,56,4.0,4.0,90,0.10,,,0.07,Wunderground v.1.15,2013-12-06 07:08:00,
2013-12-06 02:13:00,49.2,46.4,29.89,ENE,74,3.0,5.0,90,0.10,,,0.08,Wunderground v.1.15,2013-12-06 07:13:00,
2013-12-06 02:18:00,49.1,46.3,29.88,East,80,3.0,7.0,90,0.10,,,0.09,Wunderground v.1.15,2013-12-06 07:18:00,
2013-12-06 02:23:00,48.8,46.0,29.88,East,89,2.0,7.0,90,0.13,,,0.10,Wunderground v.1.15,2013-12-06 07:23:00,
2013-12-06 02:29:00,48.6,45.8,29.88,East,86,2.0,7.0,90,0.06,,,0.10,Wunderground v.1.15,2013-12-06 07:29:00,
2013-12-06 02:34:00,48.5,46.0,29.89,East,85,1.0,5.0,91,0.04,,,0.10,Wunderground v.1.15,2013-12-06 07:34:00,
2013-12-06 02:39:00,48.5,46.0,29.89,East,85,0.0,5.0,91,0.00,,,0.10,Wunderground v.1.15,2013-12-06 07:39:00,
2013-12-06 02:44:00,48.3,45.8,29.89,East,85,3.0,3.0,91,0.00,,,0.10,Wunderground v.1.15,2013-12-06 07:44:00,
2013-12-06 02:49:00,48.3,45.8,29.90,East,85,3.0,4.0,91,0.00,,,0.11,Wunderground v.1.15,2013-12-06 07:49:00,
2013-12-06 02:54:00,48.2,46.0,29.90,East,84,2.0,4.0,92,0.14,,,0.12,Wunderground v.1.15,2013-12-06 07:54:00,
2013-12-06 02:59:00,48.2,46.0,29.91,East,84,0.0,4.0,92,0.06,,,0.12,Wunderground v.1.15,2013-12-06 07:59:00,
2013-12-06 03:04:00,48.0,45.8,29.91,NE,54,3.0,10.0,92,0.06,,,0.13,Wunderground v.1.15,2013-12-06 08:04:00,
2013-12-06 03:09:00,47.9,45.7,29.91,ENE,57,1.0,10.0,92,0.08,,,0.14,Wunderground v.1.15,2013-12-06 08:09:00,
2013-12-06 03:14:00,47.4,45.2,29.90,North,360,10.0,10.0,92,0.12,,,0.15,Wunderground v.1.15,2013-12-06 08:14:00,
2013-12-06 03:19:00,47.1,44.9,29.90,NE,46,5.0,15.0,92,0.11,,,0.16,Wunderground v.1.15,2013-12-06 08:19:00,
2013-12-06 03:24:00,46.7,44.2,29.90,NE,51,5.0,12.0,91,0.09,,,0.16,Wunderground v.1.15,2013-12-06 08:24:00,
2013-12-06 03:29:00,46.2,43.7,29.91,NE,55,3.0,12.0,91,0.08,,,0.17,Wunderground v.1.15,2013-12-06 08:29:00,
2013-12-06 03:35:00,45.8,43.3,29.91,NE,49,4.0,6.0,91,0.11,,,0.18,Wunderground v.1.15,2013-12-06 08:35:00,
2013-12-06 03:40:00,45.5,43.0,29.91,NE,38,7.0,7.0,91,0.08,,,0.19,Wunderground v.1.15,2013-12-06 08:40:00,
2013-12-06 03:45:00,45.1,42.6,29.92,North,5,5.0,9.0,91,0.10,,,0.20,Wunderground v.1.15,2013-12-06 08:45:00,
2013-12-06 03:50:00,44.8,42.6,29.92,NNE,22,6.0,6.0,92,0.10,,,0.21,Wunderground v.1.15,2013-12-06 08:50:00,
2013-12-06 03:55:00,44.5,42.3,29.92,NNE,12,5.0,11.0,92,0.10,,,0.21,Wunderground v.1.15,2013-12-06 08:55:00,
2013-12-06 04:00:00,44.2,42.0,29.92,North,360,6.0,8.0,92,0.08,,,0.22,Wunderground v.1.15,2013-12-06 09:00:00,
2013-12-06 04:05:00,44.1,41.9,29.92,North,5,6.0,10.0,92,0.11,,,0.23,Wunderground v.1.15,2013-12-06 09:05:00,
2013-12-06 04:10:00,43.6,41.4,29.92,North,355,4.0,9.0,92,0.11,,,0.24,Wunderground v.1.15,2013-12-06 09:10:00,
2013-12-06 04:15:00,43.3,41.1,29.92,North,355,5.0,10.0,92,0.09,,,0.25,Wunderground v.1.15,2013-12-06 09:15:00,
2013-12-06 04:20:00,43.1,40.9,29.92,North,355,4.0,6.0,92,0.13,,,0.26,Wunderground v.1.15,2013-12-06 09:20:00,
2013-12-06 04:25:00,42.8,40.6,29.92,North,355,4.0,7.0,92,0.12,,,0.27,Wunderground v.1.15,2013-12-06 09:25:00,
2013-12-06 04:30:00,42.3,40.1,29.92,North,355,4.0,7.0,92,0.13,,,0.28,Wunderground v.1.15,2013-12-06 09:30:00,
2013-12-06 04:35:00,42.2,40.0,29.92,North,355,7.0,13.0,92,0.10,,,0.29,Wunderground v.1.15,2013-12-06 09:35:00,
2013-12-06 04:40:00,42.1,40.2,29.92,NNE,25,5.0,7.0,93,0.11,,,0.30,Wunderground v.1.15,2013-12-06 09:40:00,
2013-12-06 04:45:00,41.9,40.0,29.94,North,10,2.0,10.0,93,0.17,,,0.00,Wunderground v.1.15,2013-12-06 09:45:00,
2013-12-06 04:50:00,41.6,39.7,29.94,NNE,32,12.0,12.0,93,0.17,,,0.01,Wunderground v.1.15,2013-12-06 09:50:00,
2013-12-06 04:55:00,41.3,39.4,29.94,NNE,13,7.0,12.0,93,0.14,,,0.02,Wunderground v.1.15,2013-12-06 09:55:00,
2013-12-06 05:00:00,41.1,39.2,29.96,NNE,24,4.0,7.0,93,0.12,,,0.03,Wunderground v.1.15,2013-12-06 10:00:00,
2013-12-06 05:05:00,40.9,39.0,29.96,North,5,5.0,10.0,93,0.10,,,0.04,Wunderground v.1.15,2013-12-06 10:05:00,
2013-12-06 05:10:00,40.6,38.7,29.96,NNE,27,6.0,7.0,93,0.10,,,0.05,Wunderground v.1.15,2013-12-06 10:10:00,
2013-12-06 05:15:00,40.5,38.6,29.96,NNE,30,9.0,12.0,93,0.22,,,0.07,Wunderground v.1.15,2013-12-06 10:15:00,
2013-12-06 05:20:00,40.2,38.3,29.96,NNE,19,4.0,7.0,93,0.17,,,0.08,Wunderground v.1.15,2013-12-06 10:20:00,
2013-12-06 05:25:00,39.9,38.0,29.96,NNE,17,7.0,11.0,93,0.18,,,0.10,Wunderground v.1.15,2013-12-06 10:25:00,
2013-12-06 05:30:00,39.6,37.7,29.96,NE,36,5.0,7.0,93,0.13,,,0.11,Wunderground v.1.15,2013-12-06 10:30:00,
2013-12-06 05:35:00,39.5,37.6,29.96,NNE,14,6.0,12.0,93,0.10,,,0.11,Wunderground v.1.15,2013-12-06 10:35:00,
2013-12-06 05:40:00,39.3,37.4,29.96,NE,55,6.0,10.0,93,0.08,,,0.12,Wunderground v.1.15,2013-12-06 10:40:00,
2013-12-06 05:45:00,39.2,37.3,29.95,ENE,57,7.0,12.0,93,0.20,,,0.14,Wunderground v.1.15,2013-12-06 10:45:00,
2013-12-06 05:51:00,38.8,36.9,29.95,ENE,60,7.0,11.0,93,0.09,,,0.14,Wunderground v.1.15,2013-12-06 10:51:00,
2013-12-06 05:56:00,38.3,36.5,29.95,NE,47,7.0,13.0,93,0.23,,,0.16,Wunderground v.1.15,2013-12-06 10:56:00,
2013-12-06 06:02:00,38.0,36.2,29.95,NE,53,6.0,12.0,93,0.09,,,0.17,Wunderground v.1.15,2013-12-06 11:02:00,
2013-12-06 06:07:00,37.9,36.1,29.95,NE,53,5.0,12.0,93,0.09,,,0.17,Wunderground v.1.15,2013-12-06 11:07:00,
2013-12-06 06:12:00,37.9,36.1,29.95,NE,53,10.0,11.0,93,0.05,,,0.17,Wunderground v.1.15,2013-12-06 11:12:00,
2013-12-06 06:17:00,37.6,35.8,29.96,NNE,28,3.0,11.0,93,0.18,,,0.19,Wunderground v.1.15,2013-12-06 11:17:00,
2013-12-06 06:22:00,37.5,35.7,29.96,ENE,65,6.0,10.0,93,0.11,,,0.20,Wunderground v.1.15,2013-12-06 11:22:00,
2013-12-06 06:27:00,37.2,35.4,29.96,ENE,69,5.0,10.0,93,0.11,,,0.20,Wunderground v.1.15,2013-12-06 11:27:00,
2013-12-06 06:32:00,37.2,35.4,29.95,ENE,64,3.0,7.0,93,0.06,,,0.20,Wunderground v.1.15,2013-12-06 11:32:00,
2013-12-06 06:37:00,37.0,35.2,29.95,NE,43,5.0,12.0,93,0.04,,,0.20,Wunderground v.1.15,2013-12-06 11:37:00,
2013-12-06 06:42:00,37.0,35.2,29.95,NNE,33,9.0,10.0,93,0.00,,,0.20,Wunderground v.1.15,2013-12-06 11:42:00,
2013-12-06 06:47:00,37.0,35.2,29.97,NE,38,7.0,13.0,93,0.00,,,0.20,Wunderground v.1.15,2013-12-06 11:47:00,
2013-12-06 06:52:00,37.2,34.5,29.97,NE,40,11.0,11.0,90,0.00,,,0.21,Wunderground v.1.15,2013-12-06 11:52:00,
2013-12-06 06:57:00,37.2,35.4,29.97,ENE,61,2.0,11.0,93,0.00,,,0.21,Wunderground v.1.15,2013-12-06 11:57:00,
2013-12-06 07:02:00,37.5,35.7,29.95,ENE,78,1.0,9.0,93,0.00,,,0.21,Wunderground v.1.15,2013-12-06 12:02:00,
2013-12-06 07:07:00,37.6,35.8,29.95,ENE,78,3.0,9.0,93,0.00,,,0.21,Wunderground v.1.15,2013-12-06 12:07:00,
2013-12-06 07:12:00,37.8,36.0,29.95,ENE,78,3.0,3.0,93,0.00,,,0.21,Wunderground v.1.15,2013-12-06 12:12:00,
2013-12-06 07:17:00,37.6,35.8,29.97,SE,131,7.0,8.0,93,0.00,,,0.21,Wunderground v.1.15,2013-12-06 12:17:00,
2013-12-06 07:22:00,37.5,35.7,29.97,SE,133,1.0,4.0,93,0.00,,,0.21,Wunderground v.1.15,2013-12-06 12:22:00,
2013-12-06 07:27:00,37.5,35.7,29.97,SE,133,0.0,4.0,93,0.00,,,0.21,Wunderground v.1.15,2013-12-06 12:27:00,
2013-12-06 07:32:00,37.5,35.7,30.00,SE,133,0.0,1.0,93,0.00,,,0.21,Wunderground v.1.15,2013-12-06 12:32:00,
2013-12-06 07:37:00,37.5,35.7,30.00,SE,133,0.0,1.0,93,0.00,,,0.21,Wunderground v.1.15,2013-12-06 12:37:00,
2013-12-06 07:42:00,37.2,35.4,30.00,SE,133,0.0,2.0,93,0.00,,,0.21,Wunderground v.1.15,2013-12-06 12:42:00,
2013-12-06 07:47:00,37.0,35.2,30.01,SE,133,0.0,2.0,93,0.00,,,0.21,Wunderground v.1.15,2013-12-06 12:47:00,
2013-12-06 07:52:00,37.0,35.2,30.01,SE,133,0.0,0.0,93,0.00,,,0.21,Wunderground v.1.15,2013-12-06 12:52:00,
2013-12-06 07:57:00,37.0,35.2,30.01,SE,133,0.0,0.0,93,0.00,,,0.21,Wunderground v.1.15,2013-12-06 12:57:00,
2013-12-06 08:02:00,36.9,35.3,30.01,SE,133,0.0,3.0,94,0.00,,,0.21,Wunderground v.1.15,2013-12-06 13:02:00,
2013-12-06 08:07:00,36.9,35.3,30.01,SE,133,0.0,3.0,94,0.00,,,0.21,Wunderground v.1.15,2013-12-06 13:07:00,
2013-12-06 08:12:00,36.9,35.3,30.01,SE,133,0.0,0.0,94,0.00,,,0.21,Wunderground v.1.15,2013-12-06 13:12:00,
2013-12-06 08:18:00,36.9,35.3,30.01,SE,133,0.0,0.0,94,0.00,,,0.21,Wunderground v.1.15,2013-12-06 13:18:00,
2013-12-06 08:23:00,36.9,35.3,30.01,SE,133,0.0,0.0,94,0.00,,,0.21,Wunderground v.1.15,2013-12-06 13:23:00,
2013-12-06 08:28:00,36.9,35.3,30.01,SE,133,0.0,0.0,94,0.00,,,0.21,Wunderground v.1.15,2013-12-06 13:28:00,
2013-12-06 08:33:00,37.0,35.4,30.01,SE,133,0.0,0.0,94,0.00,,,0.21,Wunderground v.1.15,2013-12-06 13:33:00,
2013-12-06 08:38:00,37.0,35.4,30.01,SE,133,0.0,0.0,94,0.00,,,0.21,Wunderground v.1.15,2013-12-06 13:38:00,
2013-12-06 08:43:00,37.0,35.4,30.01,SE,133,2.0,2.0,94,0.00,,,0.21,Wunderground v.1.15,2013-12-06 13:43:00,
2013-12-06 08:48:00,37.0,35.7,30.02,SE,133,0.0,2.0,95,0.00,,,0.21,Wunderground v.1.15,2013-12-06 13:48:00,
2013-12-06 08:53:00,37.0,35.7,30.02,SE,133,1.0,3.0,95,0.00,,,0.21,Wunderground v.1.15,2013-12-06 13:53:00,
2013-12-06 08:58:00,37.2,35.9,30.02,SE,133,0.0,3.0,95,0.00,,,0.21,Wunderground v.1.15,2013-12-06 13:58:00,
2013-12-06 09:03:00,37.3,36.0,30.02,SE,133,0.0,1.0,95,0.00,,,0.21,Wunderground v.1.15,2013-12-06 14:03:00,
2013-12-06 09:08:00,37.3,36.0,30.02,SE,133,0.0,2.0,95,0.00,,,0.21,Wunderground v.1.15,2013-12-06 14:08:00,
2013-12-06 09:13:00,37.5,36.2,30.02,SE,133,0.0,0.0,95,0.00,,,0.21,Wunderground v.1.15,2013-12-06 14:13:00,
2013-12-06 09:18:00,37.5,36.2,30.03,SE,133,0.0,0.0,95,0.00,,,0.21,Wunderground v.1.15,2013-12-06 14:18:00,
2013-12-06 09:23:00,37.5,36.2,30.03,SE,133,0.0,0.0,95,0.00,,,0.21,Wunderground v.1.15,2013-12-06 14:23:00,
2013-12-06 09:28:00,37.6,36.3,30.03,SE,133,0.0,0.0,95,0.00,,,0.21,Wunderground v.1.15,2013-12-06 14:28:00,
2013-12-06 09:33:00,37.6,36.3,30.02,SE,133,1.0,3.0,95,0.00,,,0.21,Wunderground v.1.15,2013-12-06 14:33:00,
2013-12-06 09:38:00,37.6,36.3,30.02,SE,133,2.0,4.0,95,0.00,,,0.21,Wunderground v.1.15,2013-12-06 14:38:00,
2013-12-06 09:43:00,37.6,36.3,30.02,SE,133,2.0,5.0,95,0.00,,,0.21,Wunderground v.1.15,2013-12-06 14:43:00,
2013-12-06 09:48:00,37.6,36.3,30.01,SE,133,4.0,5.0,95,0.00,,,0.21,Wunderground v.1.15,2013-12-06 14:48:00,
2013-12-06 09:53:00,37.6,36.3,30.01,SE,133,2.0,5.0,95,0.00,,,0.21,Wunderground v.1.15,2013-12-06 14:53:00,
2013-12-06 09:58:00,37.6,36.3,30.01,SE,133,0.0,5.0,95,0.00,,,0.21,Wunderground v.1.15,2013-12-06 14:58:00,
2013-12-06 10:04:00,37.6,36.3,30.02,SE,133,0.0,4.0,95,0.00,,,0.21,Wunderground v.1.15,2013-12-06 15:04:00,
2013-12-06 10:09:00,37.8,36.5,30.02,SE,133,0.0,4.0,95,0.00,,,0.21,Wunderground v.1.15,2013-12-06 15:09:00,
2013-12-06 10:14:00,37.8,36.5,30.03,SE,133,0.0,0.0,95,0.00,,,0.21,Wunderground v.1.15,2013-12-06 15:14:00,
2013-12-06 10:19:00,37.9,36.6,30.03,SE,133,0.0,0.0,95,0.00,,,0.21,Wunderground v.1.15,2013-12-06 15:19:00,
2013-12-06 10:24:00,37.9,36.6,30.03,SE,133,0.0,0.0,95,0.00,,,0.21,Wunderground v.1.15,2013-12-06 15:24:00,
2013-12-06 10:29:00,38.0,36.7,30.03,SE,133,0.0,0.0,95,0.00,,,0.21,Wunderground v.1.15,2013-12-06 15:29:00,
2013-12-06 10:34:00,38.0,36.7,30.03,SE,133,0.0,0.0,95,0.00,,,0.21,Wunderground v.1.15,2013-12-06 15:34:00,
2013-12-06 10:39:00,38.0,36.7,30.03,SE,133,0.0,0.0,95,0.00,,,0.21,Wunderground v.1.15,2013-12-06 15:39:00,
2013-12-06 10:44:00,38.0,36.7,30.02,SE,133,0.0,3.0,95,0.00,,,0.21,Wunderground v.1.15,2013-12-06 15:44:00,
2013-12-06 10:49:00,38.0,36.7,30.02,SE,133,4.0,4.0,95,0.00,,,0.21,Wunderground v.1.15,2013-12-06 15:49:00,
2013-12-06 10:54:00,38.0,36.7,30.02,SE,132,3.0,5.0,95,0.00,,,0.21,Wunderground v.1.15,2013-12-06 15:54:00,
2013-12-06 10:59:00,38.0,36.7,30.02,SE,132,0.0,5.0,95,0.00,,,0.21,Wunderground v.1.15,2013-12-06 15:59:00,
2013-12-06 11:04:00,38.2,36.9,30.02,SE,132,0.0,2.0,95,0.00,,,0.21,Wunderground v.1.15,2013-12-06 16:04:00,
2013-12-06 11:09:00,38.3,37.0,30.02,SE,132,0.0,2.0,95,0.00,,,0.21,Wunderground v.1.15,2013-12-06 16:09:00,
2013-12-06 11:14:00,38.5,37.2,30.02,SE,132,0.0,0.0,95,0.00,,,0.21,Wunderground v.1.15,2013-12-06 16:14:00,
2013-12-06 11:19:00,38.6,37.3,30.02,SE,132,0.0,0.0,95,0.00,,,0.21,Wunderground v.1.15,2013-12-06 16:19:00,
2013-12-06 11:24:00,38.8,37.5,30.02,SE,132,0.0,0.0,95,0.00,,,0.21,Wunderground v.1.15,2013-12-06 16:24:00,
2013-12-06 11:29:00,38.8,37.5,30.03,SE,132,0.0,0.0,95,0.00,,,0.21,Wunderground v.1.15,2013-12-06 16:29:00,
2013-12-06 11:34:00,38.9,37.6,30.03,SE,132,0.0,0.0,95,0.00,,,0.21,Wunderground v.1.15,2013-12-06 16:34:00,
2013-12-06 11:39:00,38.8,37.5,30.03,SE,132,0.0,2.0,95,0.00,,,0.21,Wunderground v.1.15,2013-12-06 16:39:00,
2013-12-06 11:44:00,38.9,37.6,30.05,SE,132,2.0,2.0,95,0.00,,,0.21,Wunderground v.1.15,2013-12-06 16:44:00,
2013-12-06 11:49:00,39.1,37.8,30.05,SE,132,0.0,3.0,95,0.00,,,0.21,Wunderground v.1.15,2013-12-06 16:49:00,
2013-12-06 11:55:00,39.2,37.9,30.05,SE,132,0.0,4.0,95,0.00,,,0.21,Wunderground v.1.15,2013-12-06 16:55:00,
2013-12-06 12:00:00,39.2,37.9,30.04,SE,132,0.0,0.0,95,0.00,,,0.21,Wunderground v.1.15,2013-12-06 17:00:00,
2013-12-06 12:05:00,39.3,38.0,30.04,SE,132,2.0,3.0,95,0.00,,,0.21,Wunderground v.1.15,2013-12-06 17:05:00,
2013-12-06 12:10:00,39.2,37.6,30.04,SE,133,2.0,2.0,94,0.00,,,0.21,Wunderground v.1.15,2013-12-06 17:10:00,
2013-12-06 12:15:00,38.5,35.8,30.04,WNW,301,3.0,9.0,90,0.00,,,0.21,Wunderground v.1.15,2013-12-06 17:15:00,
2013-12-06 12:20:00,38.6,34.8,30.04,NW,323,9.0,9.0,86,0.00,,,0.21,Wunderground v.1.15,2013-12-06 17:20:00,
2013-12-06 12:25:00,38.9,32.3,30.04,NW,325,0.0,11.0,77,0.00,,,0.21,Wunderground v.1.15,2013-12-06 17:25:00,
2013-12-06 12:30:00,39.6,30.3,30.03,WNW,298,6.0,7.0,69,0.00,,,0.21,Wunderground v.1.15,2013-12-06 17:30:00,
2013-12-06 12:35:00,40.2,31.5,30.03,WNW,299,4.0,9.0,71,0.00,,,0.21,Wunderground v.1.15,2013-12-06 17:35:00,
2013-12-06 12:41:00,40.5,32.5,30.03,WNW,300,2.0,4.0,73,0.00,,,0.21,Wunderground v.1.15,2013-12-06 17:41:00,
2013-12-06 12:46:00,40.6,32.3,30.03,WNW,300,0.0,4.0,72,0.00,,,0.21,Wunderground v.1.15,2013-12-06 17:46:00,
2013-12-06 12:51:00,40.8,33.2,30.03,WNW,300,0.0,0.0,74,0.00,,,0.21,Wunderground v.1.15,2013-12-06 17:51:00,
2013-12-06 12:56:00,40.8,33.2,30.03,WNW,301,0.0,3.0,74,0.00,,,0.21,Wunderground v.1.15,2013-12-06 17:56:00,
2013-12-06 13:01:00,40.6,33.3,30.02,WNW,301,0.0,0.0,75,0.00,,,0.21,Wunderground v.1.15,2013-12-06 18:01:00,
2013-12-06 13:06:00,40.8,33.5,30.02,WNW,301,0.0,0.0,75,0.00,,,0.21,Wunderground v.1.15,2013-12-06 18:06:00,
2013-12-06 13:11:00,40.6,33.3,30.02,WNW,301,0.0,4.0,75,0.00,,,0.21,Wunderground v.1.15,2013-12-06 18:11:00,
2013-12-06 13:16:00,40.6,33.3,30.03,WNW,301,0.0,4.0,75,0.00,,,0.21,Wunderground v.1.15,2013-12-06 18:16:00,
2013-12-06 13:21:00,40.6,33.3,30.03,WNW,301,0.0,0.0,75,0.00,,,0.21,Wunderground v.1.15,2013-12-06 18:21:00,
2013-12-06 13:26:00,40.6,33.6,30.03,WNW,301,0.0,0.0,76,0.00,,,0.21,Wunderground v.1.15,2013-12-06 18:26:00,
2013-12-06 13:31:00,40.6,34.0,30.03,WNW,301,0.0,0.0,77,0.00,,,0.21,Wunderground v.1.15,2013-12-06 18:31:00,
2013-12-06 13:36:00,40.5,33.5,30.03,WNW,301,0.0,4.0,76,0.00,,,0.21,Wunderground v.1.15,2013-12-06 18:36:00,
2013-12-06 13:41:00,40.5,33.9,30.03,WNW,301,3.0,3.0,77,0.00,,,0.21,Wunderground v.1.15,2013-12-06 18:41:00,
2013-12-06 13:46:00,40.2,32.6,30.03,WNW,302,0.0,4.0,74,0.00,,,0.21,Wunderground v.1.15,2013-12-06 18:46:00,
2013-12-06 13:51:00,40.3,32.7,30.03,WNW,302,1.0,2.0,74,0.00,,,0.21,Wunderground v.1.15,2013-12-06 18:51:00,
2013-12-06 13:56:00,40.2,30.5,30.03,WNW,302,3.0,3.0,68,0.00,,,0.21,Wunderground v.1.15,2013-12-06 18:56:00,
2013-12-06 14:01:00,40.2,28.6,30.03,NW,321,3.0,9.0,63,0.00,,,0.21,Wunderground v.1.15,2013-12-06 19:01:00,
2013-12-06 14:06:00,40.3,27.5,30.03,NW,320,2.0,9.0,60,0.00,,,0.21,Wunderground v.1.15,2013-12-06 19:06:00,
2013-12-06 14:11:00,40.5,27.3,30.03,NW,314,5.0,9.0,59,0.00,,,0.21,Wunderground v.1.15,2013-12-06 19:11:00,
2013-12-06 14:16:00,40.5,28.1,30.03,NW,315,0.0,9.0,61,0.00,,,0.21,Wunderground v.1.15,2013-12-06 19:16:00,
2013-12-06 14:21:00,40.5,29.3,30.03,NW,315,1.0,2.0,64,0.00,,,0.21,Wunderground v.1.15,2013-12-06 19:21:00,
2013-12-06 14:26:00,40.5,29.7,30.03,NW,315,3.0,4.0,65,0.00,,,0.21,Wunderground v.1.15,2013-12-06 19:26:00,
2013-12-06 14:31:00,40.3,29.1,30.03,NW,315,0.0,4.0,64,0.00,,,0.21,Wunderground v.1.15,2013-12-06 19:31:00,
2013-12-06 14:36:00,40.3,29.1,30.03,NW,320,4.0,10.0,64,0.00,,,0.21,Wunderground v.1.15,2013-12-06 19:36:00,
2013-12-06 14:41:00,40.2,28.6,30.03,NW,321,1.0,4.0,63,0.00,,,0.21,Wunderground v.1.15,2013-12-06 19:41:00,
2013-12-06 14:46:00,40.2,27.8,30.04,NW,317,2.0,7.0,61,0.00,,,0.21,Wunderground v.1.15,2013-12-06 19:46:00,
2013-12-06 14:51:00,40.1,28.1,30.04,NW,317,4.0,5.0,62,0.00,,,0.21,Wunderground v.1.15,2013-12-06 19:51:00,
2013-12-06 14:56:00,40.1,28.1,30.04,NNW,331,3.0,10.0,62,0.00,,,0.21,Wunderground v.1.15,2013-12-06 19:56:00,
2013-12-06 15:01:00,39.8,27.4,30.03,NNW,331,1.0,7.0,61,0.00,,,0.21,Wunderground v.1.15,2013-12-06 20:01:00,
2013-12-06 15:06:00,39.6,27.6,30.03,NNW,331,1.0,9.0,62,0.00,,,0.21,Wunderground v.1.15,2013-12-06 20:06:00,
2013-12-06 15:11:00,39.5,27.2,30.03,NNW,332,4.0,11.0,61,0.00,,,0.21,Wunderground v.1.15,2013-12-06 20:11:00,
2013-12-06 15:16:00,39.3,27.4,30.03,NNW,340,2.0,11.0,62,0.00,,,0.21,Wunderground v.1.15,2013-12-06 20:16:00,
2013-12-06 15:22:00,39.3,27.7,30.03,NNW,338,1.0,5.0,63,0.00,,,0.21,Wunderground v.1.15,2013-12-06 20:22:00,
2013-12-06 15:27:00,39.2,28.0,30.03,NNW,337,3.0,5.0,64,0.00,,,0.21,Wunderground v.1.15,2013-12-06 20:27:00,
2013-12-06 15:32:00,38.9,28.5,30.05,NNW,343,3.0,10.0,66,0.00,,,0.21,Wunderground v.1.15,2013-12-06 20:32:00,
2013-12-06 15:37:00,38.6,27.8,30.05,NNW,338,2.0,11.0,65,0.00,,,0.21,Wunderground v.1.15,2013-12-06 20:37:00,
2013-12-06 15:42:00,38.5,27.7,30.05,North,355,9.0,12.0,65,0.00,,,0.21,Wunderground v.1.15,2013-12-06 20:42:00,
2013-12-06 15:47:00,38.3,27.2,30.06,NNW,343,3.0,12.0,64,0.00,,,0.21,Wunderground v.1.15,2013-12-06 20:47:00,
2013-12-06 15:52:00,38.2,27.1,30.06,NNW,347,5.0,9.0,64,0.00,,,0.21,Wunderground v.1.15,2013-12-06 20:52:00,
2013-12-06 15:57:00,38.0,27.3,30.06,NNW,344,3.0,9.0,65,0.00,,,0.21,Wunderground v.1.15,2013-12-06 20:57:00,
2013-12-06 16:03:00,37.9,26.8,30.05,NNW,340,2.0,9.0,64,0.00,,,0.21,Wunderground v.1.15,2013-12-06 21:03:00,
2013-12-06 16:08:00,37.9,26.8,30.05,NNW,340,4.0,11.0,64,0.00,,,0.21,Wunderground v.1.15,2013-12-06 21:08:00,
2013-12-06 16:13:00,37.8,26.7,30.05,NNW,338,4.0,9.0,64,0.00,,,0.21,Wunderground v.1.15,2013-12-06 21:13:00,
2013-12-06 16:18:00,37.8,26.7,30.05,NNW,343,3.0,9.0,64,0.00,,,0.21,Wunderground v.1.15,2013-12-06 21:18:00,
2013-12-06 16:23:00,37.6,26.9,30.05,NNW,344,1.0,5.0,65,0.00,,,0.21,Wunderground v.1.15,2013-12-06 21:23:00,
2013-12-06 16:28:00,37.5,27.2,30.05,NNW,344,3.0,5.0,66,0.00,,,0.21,Wunderground v.1.15,2013-12-06 21:28:00,
2013-12-06 16:33:00,37.3,27.0,30.06,NNW,346,5.0,7.0,66,0.00,,,0.21,Wunderground v.1.15,2013-12-06 21:33:00,
2013-12-06 16:38:00,37.2,26.5,30.06,North,350,4.0,7.0,65,0.00,,,0.21,Wunderground v.1.15,2013-12-06 21:38:00,
2013-12-06 16:43:00,37.2,26.5,30.06,North,5,2.0,7.0,65,0.00,,,0.21,Wunderground v.1.15,2013-12-06 21:43:00,
2013-12-06 16:48:00,37.0,26.3,30.06,North,5,3.0,7.0,65,0.00,,,0.21,Wunderground v.1.15,2013-12-06 21:48:00,
2013-12-06 16:53:00,37.0,26.3,30.06,North,5,4.0,5.0,65,0.00,,,0.21,Wunderground v.1.15,2013-12-06 21:53:00,
2013-12-06 16:58:00,36.9,25.9,30.06,North,5,4.0,6.0,64,0.00,,,0.21,Wunderground v.1.15,2013-12-06 21:58:00,
2013-12-06 17:03:00,37.0,25.9,30.06,North,5,2.0,6.0,64,0.00,,,0.21,Wunderground v.1.15,2013-12-06 22:03:00,
2013-12-06 17:08:00,37.0,25.9,30.06,North,5,6.0,7.0,64,0.00,,,0.21,Wunderground v.1.15,2013-12-06 22:08:00,
2013-12-06 17:13:00,37.0,25.9,30.06,NNE,21,5.0,7.0,64,0.00,,,0.21,Wunderground v.1.15,2013-12-06 22:13:00,
2013-12-06 17:18:00,37.0,25.6,30.06,NNE,26,3.0,7.0,63,0.00,,,0.21,Wunderground v.1.15,2013-12-06 22:18:00,
2013-12-06 17:23:00,37.0,25.9,30.06,NNE,25,3.0,5.0,64,0.00,,,0.21,Wunderground v.1.15,2013-12-06 22:23:00,
2013-12-06 17:28:00,36.9,26.6,30.06,NNE,24,3.0,5.0,66,0.00,,,0.21,Wunderground v.1.15,2013-12-06 22:28:00,
2013-12-06 17:33:00,36.8,26.9,30.08,NNE,24,1.0,6.0,67,0.00,,,0.21,Wunderground v.1.15,2013-12-06 22:33:00,
2013-12-06 17:38:00,36.6,26.7,30.08,NNE,22,6.0,7.0,67,0.00,,,0.21,Wunderground v.1.15,2013-12-06 22:38:00,
2013-12-06 17:43:00,36.5,26.9,30.08,NNE,15,3.0,6.0,68,0.00,,,0.21,Wunderground v.1.15,2013-12-06 22:43:00,
2013-12-06 17:48:00,36.5,26.9,30.09,NNE,13,3.0,7.0,68,0.00,,,0.21,Wunderground v.1.15,2013-12-06 22:48:00,
2013-12-06 17:53:00,36.5,26.9,30.09,NNE,13,3.0,6.0,68,0.00,,,0.21,Wunderground v.1.15,2013-12-06 22:53:00,
2013-12-06 17:58:00,36.5,26.9,30.09,North,5,1.0,7.0,68,0.00,,,0.21,Wunderground v.1.15,2013-12-06 22:58:00,
2013-12-06 18:03:00,36.5,26.9,30.09,North,360,0.0,7.0,68,0.00,,,0.21,Wunderground v.1.15,2013-12-06 23:03:00,
2013-12-06 18:08:00,36.5,26.9,30.09,North,355,2.0,7.0,68,0.00,,,0.21,Wunderground v.1.15,2013-12-06 23:08:00,
2013-12-06 18:13:00,36.3,26.4,30.09,North,360,5.0,6.0,67,0.00,,,0.21,Wunderground v.1.15,2013-12-06 23:13:00,
2013-12-06 18:18:00,36.5,26.2,30.08,North,5,5.0,6.0,66,0.00,,,0.21,Wunderground v.1.15,2013-12-06 23:18:00,
2013-12-06 18:24:00,36.5,26.2,30.08,North,5,2.0,5.0,66,0.00,,,0.21,Wunderground v.1.15,2013-12-06 23:24:00,
2013-12-06 18:29:00,36.5,26.6,30.09,North,5,1.0,5.0,67,0.00,,,0.21,Wunderground v.1.15,2013-12-06 23:29:00,
2013-12-06 18:34:00,36.3,26.7,30.09,North,5,0.0,3.0,68,0.00,,,0.21,Wunderground v.1.15,2013-12-06 23:34:00,
2013-12-06 18:39:00,36.2,26.3,30.09,North,5,1.0,5.0,67,0.00,,,0.21,Wunderground v.1.15,2013-12-06 23:39:00,
2013-12-06 18:44:00,36.2,26.6,30.10,North,5,2.0,3.0,68,0.00,,,0.21,Wunderground v.1.15,2013-12-06 23:44:00,
2013-12-06 18:49:00,36.2,26.6,30.10,North,360,3.0,7.0,68,0.00,,,0.21,Wunderground v.1.15,2013-12-06 23:49:00,
2013-12-06 18:54:00,36.2,26.3,30.10,North,355,5.0,7.0,67,0.00,,,0.21,Wunderground v.1.15,2013-12-06 23:54:00,
2013-12-06 18:59:00,36.2,26.3,30.10,North,355,3.0,8.0,67,0.00,,,0.21,Wunderground v.1.15,2013-12-06 23:59:00,
2013-12-06 19:05:00,36.2,26.3,30.10,North,355,1.0,5.0,67,0.00,,,0.21,Wunderground v.1.15,2013-12-07 00:05:00,
2013-12-06 19:10:00,36.2,26.3,30.10,North,355,1.0,2.0,67,0.00,,,0.21,Wunderground v.1.15,2013-12-07 00:10:00,
2013-12-06 19:15:00,36.2,26.3,30.09,North,355,2.0,5.0,67,0.00,,,0.21,Wunderground v.1.15,2013-12-07 00:15:00,
2013-12-06 19:20:00,36.0,25.7,30.09,North,355,2.0,2.0,66,0.00,,,0.21,Wunderground v.1.15,2013-12-07 00:20:00,
2013-12-06 19:25:00,36.0,25.7,30.09,North,355,0.0,3.0,66,0.00,,,0.21,Wunderground v.1.15,2013-12-07 00:25:00,
2013-12-06 19:30:00,36.0,26.1,30.10,North,355,2.0,2.0,67,0.00,,,0.21,Wunderground v.1.15,2013-12-07 00:30:00,
2013-12-06 19:35:00,36.0,26.1,30.10,North,355,1.0,4.0,67,0.00,,,0.21,Wunderground v.1.15,2013-12-07 00:35:00,
2013-12-06 19:40:00,35.9,25.6,30.10,North,355,4.0,6.0,66,0.00,,,0.21,Wunderground v.1.15,2013-12-07 00:40:00,
2013-12-06 19:45:00,35.9,25.6,30.11,North,355,4.0,6.0,66,0.00,,,0.21,Wunderground v.1.15,2013-12-07 00:45:00,
2013-12-06 19:50:00,36.0,25.4,30.11,North,355,3.0,5.0,65,0.00,,,0.21,Wunderground v.1.15,2013-12-07 00:50:00,
2013-12-06 19:55:00,36.2,25.6,30.11,North,355,4.0,5.0,65,0.00,,,0.21,Wunderground v.1.15,2013-12-07 00:55:00,
2013-12-06 20:01:00,36.2,25.6,30.10,North,355,4.0,4.0,65,0.00,,,0.21,Wunderground v.1.15,2013-12-07 01:01:00,
2013-12-06 20:06:00,36.0,25.4,30.10,North,355,0.0,5.0,65,0.00,,,0.21,Wunderground v.1.15,2013-12-07 01:06:00,
2013-12-06 20:11:00,36.0,25.4,30.10,North,355,1.0,2.0,65,0.00,,,0.21,Wunderground v.1.15,2013-12-07 01:11:00,
2013-12-06 20:16:00,36.0,25.4,30.11,North,355,1.0,4.0,65,0.00,,,0.21,Wunderground v.1.15,2013-12-07 01:16:00,
2013-12-06 20:21:00,35.9,25.6,30.11,North,355,0.0,2.0,66,0.00,,,0.21,Wunderground v.1.15,2013-12-07 01:21:00,
2013-12-06 20:26:00,35.8,25.5,30.11,North,355,0.0,2.0,66,0.00,,,0.21,Wunderground v.1.15,2013-12-07 01:26:00,
2013-12-06 20:31:00,35.8,25.5,30.13,North,355,0.0,0.0,66,0.00,,,0.21,Wunderground v.1.15,2013-12-07 01:31:00,
2013-12-06 20:36:00,35.8,25.5,30.13,North,355,0.0,2.0,66,0.00,,,0.21,Wunderground v.1.15,2013-12-07 01:36:00,
2013-12-06 20:41:00,35.6,25.4,30.13,North,355,0.0,0.0,66,0.00,,,0.21,Wunderground v.1.15,2013-12-07 01:41:00,
2013-12-06 20:46:00,35.6,25.0,30.12,North,355,0.0,3.0,65,0.00,,,0.21,Wunderground v.1.15,2013-12-07 01:46:00,
2013-12-06 20:51:00,35.8,24.8,30.12,North,355,3.0,4.0,64,0.00,,,0.21,Wunderground v.1.15,2013-12-07 01:51:00,
2013-12-06 20:56:00,35.9,24.5,30.12,North,355,0.0,4.0,63,0.00,,,0.21,Wunderground v.1.15,2013-12-07 01:56:00,
2013-12-06 21:01:00,35.9,24.5,30.12,North,355,0.0,2.0,63,0.00,,,0.21,Wunderground v.1.15,2013-12-07 02:01:00,
2013-12-06 21:06:00,35.9,24.5,30.12,North,355,0.0,2.0,63,0.00,,,0.21,Wunderground v.1.15,2013-12-07 02:06:00,
2013-12-06 21:11:00,35.8,24.4,30.12,North,355,0.0,0.0,63,0.00,,,0.21,Wunderground v.1.15,2013-12-07 02:11:00,
2013-12-06 21:16:00,35.9,24.1,30.13,North,355,0.0,0.0,62,0.00,,,0.21,Wunderground v.1.15,2013-12-07 02:16:00,
2013-12-06 21:21:00,35.8,25.2,30.13,North,355,0.0,0.0,65,0.00,,,0.21,Wunderground v.1.15,2013-12-07 02:21:00,
2013-12-06 21:26:00,35.6,25.4,30.13,North,355,0.0,0.0,66,0.00,,,0.21,Wunderground v.1.15,2013-12-07 02:26:00,
2013-12-06 21:31:00,35.3,25.1,30.13,North,355,0.0,0.0,66,0.00,,,0.21,Wunderground v.1.15,2013-12-07 02:31:00,
2013-12-06 21:36:00,35.2,25.0,30.13,North,355,0.0,0.0,66,0.00,,,0.21,Wunderground v.1.15,2013-12-07 02:36:00,
2013-12-06 21:41:00,35.2,25.3,30.13,North,355,2.0,2.0,67,0.00,,,0.21,Wunderground v.1.15,2013-12-07 02:41:00,
2013-12-06 21:46:00,35.0,25.5,30.13,North,355,1.0,3.0,68,0.00,,,0.21,Wunderground v.1.15,2013-12-07 02:46:00,
2013-12-06 21:51:00,35.0,24.8,30.13,North,360,0.0,1.0,66,0.00,,,0.21,Wunderground v.1.15,2013-12-07 02:51:00,
2013-12-06 21:56:00,35.3,24.3,30.13,North,360,1.0,1.0,64,0.00,,,0.21,Wunderground v.1.15,2013-12-07 02:56:00,
2013-12-06 22:01:00,35.5,24.9,30.12,North,360,0.0,4.0,65,0.00,,,0.21,Wunderground v.1.15,2013-12-07 03:01:00,
2013-12-06 22:06:00,35.5,25.6,30.12,North,360,1.0,4.0,67,0.00,,,0.21,Wunderground v.1.15,2013-12-07 03:06:00,
2013-12-06 22:11:00,35.3,25.4,30.12,North,360,0.0,1.0,67,0.00,,,0.21,Wunderground v.1.15,2013-12-07 03:11:00,
2013-12-06 22:16:00,35.2,25.7,30.13,North,360,0.0,4.0,68,0.00,,,0.21,Wunderground v.1.15,2013-12-07 03:16:00,
2013-12-06 22:21:00,35.0,26.2,30.13,North,360,0.0,0.0,70,0.00,,,0.21,Wunderground v.1.15,2013-12-07 03:21:00,
2013-12-06 22:26:00,34.7,26.3,30.13,North,360,0.0,0.0,71,0.00,,,0.21,Wunderground v.1.15,2013-12-07 03:26:00,
2013-12-06 22:31:00,34.4,26.3,30.13,North,360,0.0,0.0,72,0.00,,,0.21,Wunderground v.1.15,2013-12-07 03:31:00,
2013-12-06 22:36:00,34.3,26.5,30.13,North,360,0.0,0.0,73,0.00,,,0.21,Wunderground v.1.15,2013-12-07 03:36:00,
2013-12-06 22:41:00,34.3,26.2,30.13,North,360,1.0,2.0,72,0.00,,,0.21,Wunderground v.1.15,2013-12-07 03:41:00,
2013-12-06 22:46:00,34.3,26.2,30.14,North,360,0.0,3.0,72,0.00,,,0.21,Wunderground v.1.15,2013-12-07 03:46:00,
2013-12-06 22:51:00,34.4,26.0,30.14,North,360,0.0,1.0,71,0.00,,,0.21,Wunderground v.1.15,2013-12-07 03:51:00,
2013-12-06 22:56:00,34.4,26.0,30.14,North,360,0.0,1.0,71,0.00,,,0.21,Wunderground v.1.15,2013-12-07 03:56:00,
2013-12-06 23:01:00,34.4,26.0,30.13,North,360,0.0,0.0,71,0.00,,,0.21,Wunderground v.1.15,2013-12-07 04:01:00,
2013-12-06 23:06:00,34.4,26.3,30.13,North,360,0.0,0.0,72,0.00,,,0.21,Wunderground v.1.15,2013-12-07 04:06:00,
2013-12-06 23:11:00,34.3,26.2,30.13,North,360,0.0,0.0,72,0.00,,,0.21,Wunderground v.1.15,2013-12-07 04:11:00,
2013-12-06 23:16:00,34.1,26.0,30.13,North,360,0.0,0.0,72,0.00,,,0.21,Wunderground v.1.15,2013-12-07 04:16:00,
2013-12-06 23:21:00,34.1,26.3,30.13,North,360,0.0,0.0,73,0.00,,,0.21,Wunderground v.1.15,2013-12-07 04:21:00,
2013-12-06 23:26:00,34.1,26.3,30.13,North,360,0.0,0.0,73,0.00,,,0.21,Wunderground v.1.15,2013-12-07 04:26:00,
2013-12-06 23:31:00,34.0,26.9,30.14,North,360,0.0,0.0,75,0.00,,,0.21,Wunderground v.1.15,2013-12-07 04:31:00,
2013-12-06 23:36:00,33.8,26.7,30.14,North,360,0.0,0.0,75,0.00,,,0.21,Wunderground v.1.15,2013-12-07 04:36:00,
2013-12-06 23:41:00,33.7,26.6,30.14,North,360,0.0,0.0,75,0.00,,,0.21,Wunderground v.1.15,2013-12-07 04:41:00,
2013-12-06 23:46:00,33.8,26.4,30.14,North,360,0.0,0.0,74,0.00,,,0.21,Wunderground v.1.15,2013-12-07 04:46:00,
2013-12-06 23:51:00,33.8,26.4,30.14,North,360,0.0,0.0,74,0.00,,,0.21,Wunderground v.1.15,2013-12-07 04:51:00,
2013-12-06 23:56:00,33.8,26.4,30.14,North,360,1.0,2.0,74,0.00,,,0.21,Wunderground v.1.15,2013-12-07 04:56:00,